Coeburn, VA

2:04 PM EDT on August 21, 2014 (GMT -0400)
Tri-Cities Regional Tennessee / Virginia | Change Station
CLOSE
Current Station
Airport
Location: Tri-Cities,
Elevation: 1519 ft
Nearby Weather Stations

Elev 1519 ft 36.48 °N, 82.40 °W | Updated 11 minutes ago

Scattered Clouds
Scattered Clouds
81 °F
Feels Like 84 °F
N
5
Wind Variable Wind from Variable

Today
High -- | Low -- °F
--% Chance of Precip.
Yesterday
High -- | Low -- °F
Precip. -- in
6:51 AM 8:13 PM
Waning Crescent, 13% visible
Pressure 30.12 in
Visibility 10.0 miles
Clouds Few 1800 ft
Scattered Clouds 3900 ft
Scattered Clouds 15000 ft
Heat Index 84 °F
Dew Point 69 °F
Humidity 67%
Rainfall 0.00 in
Snow Depth Not available.
UV 9 out of 12
Pollen 8.50 out of 12
Air Quality Not available.
Flu Activity Not available.
METAR KTRI 211753Z VRB04KT 10SM FEW018 SCT039 SCT150 27/21 A3020 RMK AO2 SLP200 TCU DSNT W T02720206 10272 20189 58004

More Conditions Fewer Conditions

Pressure 30.12 in
Visibility 10.0 miles
Clouds Few 1800 ft
Scattered Clouds 3900 ft
Scattered Clouds 15000 ft
Heat Index 84 °F
Dew Point 69 °F
Humidity 67%
Rainfall 0.00 in
Snow Depth Not available.
UV 9 out of 12
Pollen 8.50 out of 12
Air Quality Not available.
Flu Activity Not available.
METAR KTRI 211753Z VRB04KT 10SM FEW018 SCT039 SCT150 27/21 A3020 RMK AO2 SLP200 TCU DSNT W T02720206 10272 20189 58004

More Conditions Fewer Conditions

10-Day Weather Forecast

Almanac

Astronomy

Aug. 21, 2014 Rise Set
Actual Time 6:51 AM EDT 8:13 PM EDT
Civil Twilight 6:24 AM EDT 8:40 PM EDT
Nautical Twilight 5:51 AM EDT 9:13 PM EDT
Astronomical Twilight 5:17 AM EDT 9:47 PM EDT
Moon 3:23 AM EDT 5:39 PM EDT
Length of Visible Light 14h 16m
Length of Day
13h 21m
Tomorrow will be 2m 10s shorter.
Waning Crescent, 13% of the Moon is Illuminated
Today
Waning Crescent
Aug 25
New
Sep 2
First Quarter
Sep 8
Full
Sep 15
Last Quarter

Today's Extremes

State Highs State Lows

Community

WunderPhotos

Upload Photos

1,745,987 photos uploaded!

WunderBlogs® & News

Nearby

Snow Depth

Station Depth Elevation
No new snow has been reported.

Earthquake Activity

City Distance Mag. Time & Date
No recent earthquake activity has been reported nearby.
Minimum magnitude displayed is 2.5.

Coastal Water Temperatures

Place Temperature
No Stations Reporting

Nearby Weather Stations